Time;durP1;ratioP1;P1;durP2;ratioP2;P2;SDS_P1;SDS_P2;PMS_P1;PMS_P2;Temp;Humidity;BMP_temperature;BMP_pressure;BME280_temperature;BME280_humidity;BME280_pressure;Samples;Min_cycle;Max_cycle;Signal;HPM_P1;HPM_P2
2022/01/26 00:07:19;;;;;;;15.67;11.60;;;;;;;;;;143727;609;47020;-62
2022/01/26 00:09:46;;;;;;;20.85;12.13;;;;;;;;;;143725;581;47022;-61
2022/01/26 00:12:12;;;;;;;18.70;10.77;;;;;;;;;;143726;593;46013;-61
2022/01/26 00:14:42;;;;;;;17.73;11.57;;;;;;;;;;143727;639;46020;-61
2022/01/26 00:17:11;;;;;;;14.57;10.20;;;;;;;;;;143729;572;46020;-62
2022/01/26 00:20:09;;;;;;;17.37;11.32;;;;;;;;;;143724;585;47023;-61
2022/01/26 00:22:54;;;;;;;15.82;10.48;;;;;;;;;;143723;569;47012;-61
2022/01/26 00:25:46;;;;;;;20.50;10.95;;;;;;;;;;143726;600;46020;-60
2022/01/26 00:39:25;;;;;;;19.55;10.77;;;;;;;;;;143727;574;47012;-62
2022/01/26 00:41:55;;;;;;;18.08;10.95;;;;;;;;;;143723;585;47021;-62
2022/01/26 00:44:30;;;;;;;18.73;11.27;;;;;;;;;;143726;600;46032;-61
2022/01/26 00:46:58;;;;;;;20.10;10.77;;;;;;;;;;143726;585;46020;-62
2022/01/26 00:49:26;;;;;;;20.23;11.02;;;;;;;;;;143729;587;46021;-61
2022/01/26 00:51:54;;;;;;;16.58;11.07;;;;;;;;;;143725;564;47020;-60
2022/01/26 00:54:21;;;;;;;13.85;9.60;;;;;;;;;;143726;590;47012;-61
2022/01/26 00:56:49;;;;;;;16.67;10.77;;;;;;;;;;143726;569;46039;-60
2022/01/26 00:59:16;;;;;;;14.57;9.02;;;;;;;;;;143729;602;46022;-59
2022/01/26 01:01:45;;;;;;;17.50;9.30;;;;;;;;;;143725;594;47018;-62
2022/01/26 01:04:12;;;;;;;15.18;9.48;;;;;;;;;;143727;591;46012;-62
2022/01/26 01:06:48;;;;;;;14.63;9.48;;;;;;;;;;143728;582;46018;-62
2022/01/26 01:09:16;;;;;;;17.08;9.90;;;;;;;;;;143729;599;46022;-62
2022/01/26 01:11:43;;;;;;;14.48;10.25;;;;;;;;;;143723;605;47020;-61
2022/01/26 01:14:10;;;;;;;13.52;9.00;;;;;;;;;;143724;574;47012;-61
2022/01/26 01:16:38;;;;;;;18.95;11.10;;;;;;;;;;143728;580;46018;-62
2022/01/26 01:19:17;;;;;;;19.83;10.55;;;;;;;;;;143728;606;46029;-61
2022/01/26 01:30:40;;;;;;;17.80;11.95;;;;;;;;;;143727;589;47012;-60
2022/01/26 01:33:10;;;;;;;16.85;11.38;;;;;;;;;;143724;588;47020;-61
2022/01/26 01:35:42;;;;;;;16.08;11.23;;;;;;;;;;143724;584;47012;-60
2022/01/26 01:38:13;;;;;;;13.88;9.00;;;;;;;;;;143728;585;46018;-62
2022/01/26 01:40:43;;;;;;;16.30;11.15;;;;;;;;;;143729;601;46022;-62
2022/01/26 01:43:14;;;;;;;18.40;10.70;;;;;;;;;;143725;635;47018;-60
2022/01/26 01:45:48;;;;;;;15.15;10.85;;;;;;;;;;143726;595;46012;-61
2022/01/26 01:48:19;;;;;;;16.00;10.73;;;;;;;;;;143727;588;46018;-60
2022/01/26 01:50:48;;;;;;;17.77;11.60;;;;;;;;;;143729;587;46022;-60
2022/01/26 01:53:17;;;;;;;19.00;11.45;;;;;;;;;;143725;608;47018;-62
2022/01/26 01:55:50;;;;;;;14.38;9.77;;;;;;;;;;143727;645;46032;-61
2022/01/26 01:58:18;;;;;;;16.60;11.75;;;;;;;;;;143729;573;46018;-60
2022/01/26 02:00:46;;;;;;;17.02;11.45;;;;;;;;;;143728;563;46022;-62
2022/01/26 02:03:13;;;;;;;16.35;10.98;;;;;;;;;;143726;743;47019;-62
2022/01/26 02:05:40;;;;;;;18.58;11.40;;;;;;;;;;143726;589;46012;-62
2022/01/26 02:08:07;;;;;;;17.73;10.98;;;;;;;;;;143727;566;46018;-60
2022/01/26 02:10:35;;;;;;;18.55;11.65;;;;;;;;;;143728;610;46022;-60
2022/01/26 02:13:14;;;;;;;18.85;11.93;;;;;;;;;;143723;570;47018;-60
2022/01/26 02:15:52;;;;;;;17.10;11.35;;;;;;;;;;143726;580;46918;-62
2022/01/26 02:21:30;;;;;;;17.08;11.63;;;;;;;;;;143728;604;46031;-62
2022/01/26 02:50:26;;;;;;;16.45;11.55;;;;;;;;;;143747;602;46020;-62
2022/01/26 03:01:28;;;;;;;20.27;11.63;;;;;;;;;;143737;587;46021;-61
2022/01/26 03:04:05;;;;;;;20.33;11.43;;;;;;;;;;143734;598;45024;-62
2022/01/26 03:06:41;;;;;;;20.25;11.43;;;;;;;;;;143732;590;46013;-60
2022/01/26 03:09:13;;;;;;;16.10;10.38;;;;;;;;;;143733;601;45021;-62
2022/01/26 03:11:42;;;;;;;18.12;11.77;;;;;;;;;;143733;595;47020;-61
2022/01/26 03:14:21;;;;;;;19.35;11.95;;;;;;;;;;143732;599;47022;-62
2022/01/26 03:16:55;;;;;;;20.23;10.50;;;;;;;;;;143735;583;46919;-60
2022/01/26 03:19:35;;;;;;;18.50;12.82;;;;;;;;;;143734;580;45020;-62
2022/01/26 03:28:08;;;;;;;18.23;12.75;;;;;;;;;;143736;593;46013;-61
2022/01/26 03:33:23;;;;;;;19.58;12.60;;;;;;;;;;143737;569;46018;-62
2022/01/26 03:35:56;;;;;;;22.80;13.85;;;;;;;;;;143732;590;47020;-62
2022/01/26 03:41:34;;;;;;;20.75;13.32;;;;;;;;;;143735;595;46020;-61
2022/01/26 03:44:03;;;;;;;21.30;13.62;;;;;;;;;;143737;594;46013;-62
2022/01/26 03:46:31;;;;;;;17.40;12.37;;;;;;;;;;143733;598;47018;-62
2022/01/26 03:48:58;;;;;;;19.27;12.73;;;;;;;;;;143733;596;46010;-60
2022/01/26 03:51:26;;;;;;;21.40;13.52;;;;;;;;;;143734;629;45019;-61
2022/01/26 03:53:53;;;;;;;20.33;13.70;;;;;;;;;;143737;564;46013;-62
2022/01/26 03:56:20;;;;;;;20.85;12.65;;;;;;;;;;143732;607;47018;-62
2022/01/26 04:01:05;;;;;;;;;;;;;;;;;;143851;965;46012;-62
2022/01/26 04:03:32;;;;;;;19.73;12.10;;;;;;;;;;143743;601;46020;-61
2022/01/26 04:05:59;;;;;;;17.17;12.10;;;;;;;;;;143733;610;47020;-61
2022/01/26 04:08:29;;;;;;;24.63;13.70;;;;;;;;;;143734;608;46012;-61
2022/01/26 04:13:50;;;;;;;19.77;12.95;;;;;;;;;;143735;582;46020;-61
2022/01/26 04:16:17;;;;;;;19.92;13.02;;;;;;;;;;143731;590;47023;-61
2022/01/26 04:18:44;;;;;;;19.75;12.57;;;;;;;;;;143733;590;46012;-62
2022/01/26 04:24:06;;;;;;;21.45;12.57;;;;;;;;;;143733;639;47020;-61
2022/01/26 04:26:41;;;;;;;23.85;12.68;;;;;;;;;;143733;606;47020;-62
2022/01/26 04:29:13;;;;;;;23.00;13.88;;;;;;;;;;143730;721;46013;-62
2022/01/26 04:31:40;;;;;;;19.25;12.48;;;;;;;;;;143731;643;46021;-61
2022/01/26 04:34:07;;;;;;;18.50;12.63;;;;;;;;;;143734;609;46020;-61
2022/01/26 04:38:28;;;;;;;;;;;;;;;;;;143847;966;47022;-61
2022/01/26 04:41:13;;;;;;;22.42;13.18;;;;;;;;;;143741;614;46021;-61
2022/01/26 04:43:42;;;;;;;21.10;12.07;;;;;;;;;;143732;578;47023;-60
2022/01/26 04:46:09;;;;;;;17.05;11.15;;;;;;;;;;143734;591;46012;-60
2022/01/26 04:48:36;;;;;;;19.17;12.32;;;;;;;;;;143732;615;45021;-61
2022/01/26 04:51:03;;;;;;;19.50;11.98;;;;;;;;;;143737;583;46012;-61
2022/01/26 04:53:30;;;;;;;22.33;12.82;;;;;;;;;;143735;614;46020;-61
2022/01/26 04:55:57;;;;;;;22.27;13.38;;;;;;;;;;143730;581;47013;-60
2022/01/26 04:58:24;;;;;;;22.75;12.77;;;;;;;;;;143733;656;45020;-62
2022/01/26 05:01:08;;;;;;;;;;;;;;;;;;143851;965;46012;-60
2022/01/26 05:05:12;;;;;;;;;;;;;;;;;;143848;966;46022;-61
2022/01/26 05:07:39;;;;;;;18.73;12.48;;;;;;;;;;143747;572;46012;-62
2022/01/26 05:10:06;;;;;;;18.77;12.25;;;;;;;;;;143739;572;46050;-61
2022/01/26 05:14:10;;;;;;;;;;;;;;;;;;143852;965;45033;-61
2022/01/26 05:16:37;;;;;;;16.50;11.50;;;;;;;;;;143749;636;46012;-61
2022/01/26 05:19:05;;;;;;;21.52;13.43;;;;;;;;;;143739;608;47020;-60
2022/01/26 05:21:33;;;;;;;19.33;12.32;;;;;;;;;;143740;606;46012;-61
2022/01/26 05:24:00;;;;;;;22.98;12.65;;;;;;;;;;143740;583;45020;-63
2022/01/26 05:26:27;;;;;;;21.08;14.05;;;;;;;;;;143742;567;46021;-62
2022/01/26 05:28:54;;;;;;;27.08;14.85;;;;;;;;;;143739;634;47022;-60
2022/01/26 05:31:22;;;;;;;21.65;15.18;;;;;;;;;;143741;585;46012;-62
2022/01/26 05:33:49;;;;;;;22.67;13.90;;;;;;;;;;143739;606;45021;-60
2022/01/26 05:36:17;;;;;;;21.87;15.50;;;;;;;;;;143741;604;46012;-62
2022/01/26 05:38:44;;;;;;;23.60;15.57;;;;;;;;;;143739;563;47022;-61
2022/01/26 05:41:11;;;;;;;22.85;15.30;;;;;;;;;;143740;565;46012;-61
2022/01/26 05:45:22;;;;;;;;;;;;;;;;;;143849;965;45035;-60
2022/01/26 05:47:49;;;;;;;49.75;34.67;;;;;;;;;;143743;565;46020;-61
2022/01/26 05:50:18;;;;;;;41.15;30.60;;;;;;;;;;143734;572;47021;-60
2022/01/26 05:52:45;;;;;;;38.95;24.85;;;;;;;;;;143733;585;46012;-61
2022/01/26 05:55:12;;;;;;;32.42;22.58;;;;;;;;;;143733;614;45020;-63
2022/01/26 05:57:40;;;;;;;29.15;18.27;;;;;;;;;;143737;574;46020;-61
2022/01/26 06:00:07;;;;;;;32.20;17.62;;;;;;;;;;143733;572;47020;-62
2022/01/26 06:02:34;;;;;;;28.45;17.58;;;;;;;;;;143734;578;46012;-62
2022/01/26 06:05:01;;;;;;;27.65;16.95;;;;;;;;;;143734;709;45021;-60
2022/01/26 06:07:29;;;;;;;26.75;16.77;;;;;;;;;;143736;575;46012;-62
2022/01/26 06:09:55;;;;;;;26.80;16.67;;;;;;;;;;143732;667;47022;-62
2022/01/26 06:12:22;;;;;;;27.55;16.12;;;;;;;;;;143733;595;46012;-60
2022/01/26 06:14:49;;;;;;;25.00;17.02;;;;;;;;;;143733;601;45021;-62
2022/01/26 06:17:16;;;;;;;24.23;16.15;;;;;;;;;;143738;586;46020;-60
2022/01/26 06:19:43;;;;;;;23.65;16.60;;;;;;;;;;143733;585;47021;-61
2022/01/26 06:22:10;;;;;;;27.95;16.00;;;;;;;;;;143733;606;46012;-62
2022/01/26 06:24:37;;;;;;;23.77;15.50;;;;;;;;;;143732;590;45020;-62
2022/01/26 06:27:05;;;;;;;28.02;17.55;;;;;;;;;;143737;636;46021;-62
2022/01/26 06:29:32;;;;;;;27.20;15.75;;;;;;;;;;143732;611;47020;-62
2022/01/26 06:31:59;;;;;;;30.90;16.12;;;;;;;;;;143734;601;46012;-62
2022/01/26 06:34:26;;;;;;;29.42;17.12;;;;;;;;;;143733;600;45910;-62
2022/01/26 06:36:53;;;;;;;31.02;14.95;;;;;;;;;;143736;598;47012;-62
2022/01/26 06:39:20;;;;;;;24.27;15.65;;;;;;;;;;143733;565;47020;-61
2022/01/26 06:41:51;;;;;;;28.17;16.15;;;;;;;;;;143731;627;47012;-60
2022/01/26 06:44:32;;;;;;;24.52;15.95;;;;;;;;;;143734;652;45021;-62
2022/01/26 06:49:56;;;;;;;24.35;16.05;;;;;;;;;;143738;616;45024;-60
2022/01/26 06:52:23;;;;;;;35.03;20.90;;;;;;;;;;143735;573;46915;-62
2022/01/26 06:54:50;;;;;;;58.72;30.00;;;;;;;;;;143737;586;45020;-60
2022/01/26 06:57:17;;;;;;;49.90;26.65;;;;;;;;;;143737;579;46013;-62
2022/01/26 06:59:45;;;;;;;31.60;17.73;;;;;;;;;;143731;585;47020;-61
2022/01/26 07:02:12;;;;;;;31.42;16.90;;;;;;;;;;143739;566;46010;-60
2022/01/26 07:04:39;;;;;;;30.08;18.23;;;;;;;;;;143733;593;45021;-61
2022/01/26 07:07:06;;;;;;;31.75;20.40;;;;;;;;;;143737;595;46020;-60
2022/01/26 07:09:33;;;;;;;29.52;17.83;;;;;;;;;;143733;599;47020;-61
2022/01/26 07:12:00;;;;;;;38.65;22.08;;;;;;;;;;143739;586;46010;-60
2022/01/26 07:20:39;;;;;;;31.37;18.00;;;;;;;;;;143739;573;46037;-61
2022/01/26 07:22:43;;;;;;;25.45;17.08;;;;;;;;;;143739;634;46012;-61
2022/01/26 07:25:10;;;;;;;29.65;18.48;;;;;;;;;;143735;575;45020;-61
2022/01/26 07:27:37;;;;;;;32.47;20.95;;;;;;;;;;143737;573;46021;-60
2022/01/26 07:30:06;;;;;;;25.23;16.15;;;;;;;;;;143731;609;47020;-60
2022/01/26 07:32:35;;;;;;;28.20;15.40;;;;;;;;;;143738;595;46010;-60
2022/01/26 07:35:03;;;;;;;21.87;14.32;;;;;;;;;;143732;592;45021;-61
2022/01/26 07:37:30;;;;;;;25.83;14.45;;;;;;;;;;143737;631;46012;-60
2022/01/26 07:40:06;;;;;;;26.67;15.80;;;;;;;;;;143732;567;47020;-60
2022/01/26 07:42:36;;;;;;;34.00;16.60;;;;;;;;;;143739;564;46010;-60
2022/01/26 07:45:10;;;;;;;31.58;19.15;;;;;;;;;;143736;597;47020;-60
2022/01/26 07:47:37;;;;;;;26.80;17.08;;;;;;;;;;143739;690;46029;-61
2022/01/26 07:50:12;;;;;;;21.92;15.63;;;;;;;;;;143738;593;47023;-61
2022/01/26 07:52:40;;;;;;;28.70;15.02;;;;;;;;;;143738;589;46010;-60
2022/01/26 07:55:10;;;;;;;16.83;12.45;;;;;;;;;;143738;601;45020;-60
2022/01/26 07:57:38;;;;;;;20.05;13.13;;;;;;;;;;143742;575;46012;-60
2022/01/26 08:00:07;;;;;;;20.73;14.00;;;;;;;;;;143736;705;47023;-60
2022/01/26 08:02:34;;;;;;;22.60;12.80;;;;;;;;;;143737;575;46917;-59
2022/01/26 08:05:01;;;;;;;25.77;14.57;;;;;;;;;;143735;566;45021;-59
2022/01/26 08:07:29;;;;;;;21.90;13.25;;;;;;;;;;143736;582;46020;-59
2022/01/26 08:09:56;;;;;;;23.08;13.62;;;;;;;;;;143737;605;45913;-60
2022/01/26 08:12:23;;;;;;;21.23;13.75;;;;;;;;;;143735;607;46010;-58
2022/01/26 08:14:50;;;;;;;18.10;13.18;;;;;;;;;;143732;591;45020;-60
2022/01/26 08:17:17;;;;;;;19.25;13.32;;;;;;;;;;143735;621;47012;-59
2022/01/26 08:19:44;;;;;;;18.23;12.77;;;;;;;;;;143732;576;47021;-60
2022/01/26 08:22:18;;;;;;;21.27;12.95;;;;;;;;;;143731;596;47010;-61
2022/01/26 08:24:45;;;;;;;18.48;11.93;;;;;;;;;;143734;618;45020;-61
2022/01/26 08:27:15;;;;;;;23.25;13.15;;;;;;;;;;143734;656;46018;-60
2022/01/26 08:29:46;;;;;;;19.00;11.80;;;;;;;;;;143732;565;47020;-61
2022/01/26 08:32:13;;;;;;;19.40;11.90;;;;;;;;;;143734;590;46010;-61
2022/01/26 08:34:41;;;;;;;17.20;11.23;;;;;;;;;;143734;564;45021;-61
2022/01/26 08:37:08;;;;;;;23.27;13.73;;;;;;;;;;143737;642;46012;-60
2022/01/26 08:39:36;;;;;;;22.17;13.57;;;;;;;;;;143732;578;47020;-60
2022/01/26 08:42:07;;;;;;;20.08;12.02;;;;;;;;;;143734;575;46010;-64
2022/01/26 08:44:35;;;;;;;18.62;12.45;;;;;;;;;;143734;569;45020;-61
2022/01/26 08:47:04;;;;;;;23.08;13.13;;;;;;;;;;143737;566;46012;-61
2022/01/26 08:49:31;;;;;;;23.92;13.90;;;;;;;;;;143732;586;47021;-60
2022/01/26 08:51:58;;;;;;;21.55;14.18;;;;;;;;;;143734;597;46020;-61
2022/01/26 08:54:26;;;;;;;29.12;14.75;;;;;;;;;;143733;620;46020;-61
2022/01/26 08:57:02;;;;;;;20.95;14.23;;;;;;;;;;143736;564;46034;-62
2022/01/26 08:59:29;;;;;;;22.70;12.57;;;;;;;;;;143732;630;47020;-60
2022/01/26 09:01:56;;;;;;;25.90;13.38;;;;;;;;;;143733;646;46010;-59
2022/01/26 09:05:10;;;;;;;21.05;11.90;;;;;;;;;;143731;567;45021;-61
2022/01/26 09:07:37;;;;;;;33.40;14.27;;;;;;;;;;143736;569;46020;-61
2022/01/26 09:10:06;;;;;;;22.50;12.57;;;;;;;;;;143733;590;47020;-60
2022/01/26 09:12:36;;;;;;;20.50;12.13;;;;;;;;;;143734;589;46010;-60
2022/01/26 09:15:05;;;;;;;18.45;12.02;;;;;;;;;;143736;598;45020;-61
2022/01/26 09:17:34;;;;;;;18.58;12.88;;;;;;;;;;143736;571;46012;-61
2022/01/26 09:20:04;;;;;;;19.77;13.02;;;;;;;;;;143733;564;45023;-61
2022/01/26 09:22:31;;;;;;;18.65;11.73;;;;;;;;;;143734;607;46010;-59
2022/01/26 09:24:58;;;;;;;22.05;13.82;;;;;;;;;;143733;570;45020;-62
2022/01/26 09:27:25;;;;;;;22.20;13.02;;;;;;;;;;143736;583;46012;-61
2022/01/26 09:29:53;;;;;;;24.98;12.55;;;;;;;;;;143732;572;47020;-60
2022/01/26 09:32:20;;;;;;;19.65;11.98;;;;;;;;;;143731;680;47010;-61
2022/01/26 09:34:47;;;;;;;18.20;11.20;;;;;;;;;;143732;570;45021;-62
2022/01/26 09:37:17;;;;;;;17.05;10.52;;;;;;;;;;143737;579;46020;-62
2022/01/26 09:39:45;;;;;;;17.12;10.85;;;;;;;;;;143732;574;47022;-62
2022/01/26 09:42:13;;;;;;;21.52;11.32;;;;;;;;;;143734;592;46010;-61
2022/01/26 09:44:40;;;;;;;19.35;12.37;;;;;;;;;;143731;566;47020;-61
2022/01/26 09:47:09;;;;;;;17.20;10.95;;;;;;;;;;143737;596;46020;-63
2022/01/26 09:49:36;;;;;;;21.42;10.75;;;;;;;;;;143732;570;47021;-63
2022/01/26 09:52:18;;;;;;;19.40;11.27;;;;;;;;;;143732;598;46010;-63
2022/01/26 09:54:45;;;;;;;19.27;11.85;;;;;;;;;;143734;602;45020;-62
2022/01/26 09:57:12;;;;;;;17.50;10.57;;;;;;;;;;143737;639;46012;-61
2022/01/26 09:59:45;;;;;;;16.42;10.48;;;;;;;;;;143736;591;46014;-62
2022/01/26 10:02:30;;;;;;;14.60;11.15;;;;;;;;;;143733;654;46010;-63
2022/01/26 10:05:09;;;;;;;13.90;10.07;;;;;;;;;;143733;593;45021;-61
2022/01/26 10:08:14;;;;;;;16.77;11.48;;;;;;;;;;143736;677;46020;-63
2022/01/26 10:17:17;;;;;;;13.25;10.27;;;;;;;;;;143735;569;46020;-62
2022/01/26 10:19:19;;;;;;;15.43;9.95;;;;;;;;;;143738;614;46010;-62
2022/01/26 10:21:48;;;;;;;13.45;9.45;;;;;;;;;;143733;577;47020;-61
2022/01/26 10:24:16;;;;;;;11.82;8.70;;;;;;;;;;143732;576;46020;-63
2022/01/26 10:26:50;;;;;;;12.13;8.90;;;;;;;;;;143734;581;45021;-62
2022/01/26 10:29:17;;;;;;;18.35;10.10;;;;;;;;;;143736;624;46012;-63
2022/01/26 10:31:44;;;;;;;15.38;10.15;;;;;;;;;;143732;613;45022;-62
2022/01/26 10:34:22;;;;;;;12.98;9.13;;;;;;;;;;143733;569;46010;-62
2022/01/26 10:36:57;;;;;;;13.32;7.57;;;;;;;;;;143735;575;45020;-62
2022/01/26 10:39:42;;;;;;;11.10;8.18;;;;;;;;;;143734;587;46040;-64
2022/01/26 10:42:18;;;;;;;10.70;6.93;;;;;;;;;;143731;603;47021;-62
2022/01/26 10:45:08;;;;;;;10.00;7.40;;;;;;;;;;143734;597;46010;-63
2022/01/26 10:47:45;;;;;;;11.57;7.20;;;;;;;;;;143735;615;46018;-63
2022/01/26 10:50:32;;;;;;;10.82;6.40;;;;;;;;;;143739;587;46023;-62
2022/01/26 10:53:11;;;;;;;11.40;7.97;;;;;;;;;;143732;607;47018;-63
2022/01/26 10:55:38;;;;;;;10.82;7.85;;;;;;;;;;143732;584;47011;-61
2022/01/26 10:58:07;;;;;;;11.48;8.38;;;;;;;;;;143731;620;46018;-60
2022/01/26 11:00:40;;;;;;;16.37;8.57;;;;;;;;;;143736;593;46022;-61
2022/01/26 11:03:09;;;;;;;11.38;8.15;;;;;;;;;;143734;585;47019;-62
2022/01/26 11:05:36;;;;;;;14.75;9.05;;;;;;;;;;143732;566;47010;-63
2022/01/26 11:08:04;;;;;;;16.52;6.95;;;;;;;;;;143734;583;45018;-63
2022/01/26 11:10:39;;;;;;;10.95;7.32;;;;;;;;;;143737;573;46013;-62
2022/01/26 11:13:06;;;;;;;;;;;;;;;;;;143740;981;47020;-61
2022/01/26 11:15:34;;;;;;;18.23;6.97;;;;;;;;;;143739;590;46010;-61
2022/01/26 11:18:14;;;;;;;13.82;7.30;;;;;;;;;;143736;575;45019;-62
2022/01/26 11:20:52;;;;;;;10.00;6.85;;;;;;;;;;143737;594;46022;-62
2022/01/26 11:23:34;;;;;;;10.52;6.87;;;;;;;;;;143734;579;47045;-62
2022/01/26 11:26:01;;;;;;;37.00;22.02;;;;;;;;;;143733;583;46022;-62
2022/01/26 11:28:29;;;;;;;37.58;22.25;;;;;;;;;;143736;566;45018;-62
2022/01/26 11:31:03;;;;;;;29.17;19.77;;;;;;;;;;143739;586;46010;-62
2022/01/26 11:33:34;;;;;;;12.82;8.63;;;;;;;;;;143733;640;47019;-61
2022/01/26 11:36:02;;;;;;;19.30;11.93;;;;;;;;;;143734;647;46010;-62
2022/01/26 11:47:23;;;;;;;17.27;11.40;;;;;;;;;;143735;580;45919;-62
2022/01/26 11:50:14;;;;;;;15.60;11.02;;;;;;;;;;143731;612;45018;-63
2022/01/26 11:52:45;;;;;;;14.75;10.00;;;;;;;;;;143738;576;46022;-62
2022/01/26 11:55:36;;;;;;;14.87;10.50;;;;;;;;;;143736;576;47019;-63
2022/01/26 11:58:39;;;;;;;22.50;10.63;;;;;;;;;;143733;564;46012;-63
2022/01/26 12:01:16;;;;;;;13.43;9.45;;;;;;;;;;143732;571;45020;-62
2022/01/26 12:03:55;;;;;;;16.75;10.10;;;;;;;;;;143738;666;46013;-63
2022/01/26 12:06:30;;;;;;;14.65;10.98;;;;;;;;;;143734;570;47022;-62
2022/01/26 12:08:59;;;;;;;18.75;10.00;;;;;;;;;;143733;644;47013;-61
2022/01/26 12:11:29;;;;;;;15.18;10.27;;;;;;;;;;143733;574;45021;-63
2022/01/26 12:14:05;;;;;;;13.70;9.55;;;;;;;;;;143736;663;46012;-62
2022/01/26 12:16:39;;;;;;;14.90;9.98;;;;;;;;;;143733;581;47022;-62
2022/01/26 12:19:28;;;;;;;20.02;9.57;;;;;;;;;;143732;671;47012;-61
2022/01/26 12:34:02;;;;;;;18.58;10.27;;;;;;;;;;143736;686;46014;-62
2022/01/26 12:41:14;;;;;;;17.02;11.25;;;;;;;;;;143736;590;46012;-62
2022/01/26 12:42:12;;;;;;;18.70;10.57;;;;;;;;;;143734;581;45920;-62
2022/01/26 12:44:40;;;;;;;16.45;11.07;;;;;;;;;;143735;676;45020;-61
2022/01/26 12:47:07;;;;;;;18.40;11.12;;;;;;;;;;143737;603;46020;-61
2022/01/26 12:49:35;;;;;;;17.77;11.70;;;;;;;;;;143732;599;47023;-61
2022/01/26 12:52:02;;;;;;;17.75;11.05;;;;;;;;;;143734;584;46012;-62
2022/01/26 12:54:29;;;;;;;16.87;10.02;;;;;;;;;;143735;595;45021;-61
2022/01/26 12:57:06;;;;;;;14.55;9.55;;;;;;;;;;143739;633;46012;-62
2022/01/26 12:59:33;;;;;;;13.23;8.68;;;;;;;;;;143736;732;47020;-61
2022/01/26 13:02:00;;;;;;;9.80;6.75;;;;;;;;;;143735;587;47013;-62
2022/01/26 13:04:27;;;;;;;11.15;6.72;;;;;;;;;;143737;625;45020;-62
2022/01/26 13:06:55;;;;;;;12.10;7.07;;;;;;;;;;143739;594;46020;-62
2022/01/26 13:09:26;;;;;;;11.18;6.65;;;;;;;;;;143734;686;47021;-61
2022/01/26 13:11:59;;;;;;;13.48;8.60;;;;;;;;;;143735;564;47012;-61
2022/01/26 13:17:41;;;;;;;18.17;9.45;;;;;;;;;;143739;611;46019;-61
2022/01/26 13:20:31;;;;;;;12.52;6.72;;;;;;;;;;143733;579;47023;-61
2022/01/26 13:23:23;;;;;;;14.25;8.07;;;;;;;;;;143735;616;45918;-61
2022/01/26 13:26:10;;;;;;;14.73;8.13;;;;;;;;;;143734;564;45914;-61
2022/01/26 13:29:02;;;;;;;14.32;7.68;;;;;;;;;;143739;583;46010;-61
2022/01/26 13:32:04;;;;;;;11.15;7.87;;;;;;;;;;143732;577;47021;-61
2022/01/26 13:34:52;;;;;;;11.88;8.00;;;;;;;;;;143737;617;46010;-61
2022/01/26 13:40:29;;;;;;;11.55;8.90;;;;;;;;;;143739;605;46018;-62
2022/01/26 13:48:57;;;;;;;12.65;8.82;;;;;;;;;;143735;643;47021;-61
2022/01/26 13:54:40;;;;;;;12.05;8.13;;;;;;;;;;143736;566;46012;-61
2022/01/26 13:59:57;;;;;;;11.80;8.32;;;;;;;;;;143736;635;47020;-62
2022/01/26 14:02:27;;;;;;;14.52;8.43;;;;;;;;;;143739;596;46010;-61
2022/01/26 14:04:54;;;;;;;13.95;8.93;;;;;;;;;;143734;591;47023;-61
2022/01/26 14:07:21;;;;;;;11.45;7.82;;;;;;;;;;143735;576;47012;-61
2022/01/26 14:09:48;;;;;;;12.35;8.60;;;;;;;;;;143734;569;45021;-61
2022/01/26 14:12:20;;;;;;;13.23;8.65;;;;;;;;;;143739;566;46010;-62
2022/01/26 14:14:52;;;;;;;15.43;7.95;;;;;;;;;;143736;574;47020;-62
2022/01/26 14:17:29;;;;;;;10.45;8.00;;;;;;;;;;143734;565;47013;-62
2022/01/26 14:23:03;;;;;;;14.90;8.50;;;;;;;;;;143739;570;46018;-62
2022/01/26 14:25:31;;;;;;;11.55;8.00;;;;;;;;;;143735;581;47020;-62
2022/01/26 14:28:05;;;;;;;11.35;8.35;;;;;;;;;;143735;613;46012;-61
2022/01/26 14:30:49;;;;;;;13.07;8.43;;;;;;;;;;143736;582;45020;-62
2022/01/26 14:53:46;;;;;;;12.23;7.35;;;;;;;;;;143736;571;46037;-63
2022/01/26 14:55:58;;;;;;;10.93;7.10;;;;;;;;;;143739;662;47021;-62
2022/01/26 15:35:51;;;;;;;16.40;9.90;;;;;;;;;;143739;661;45919;-61
2022/01/26 15:52:42;;;;;;;21.20;11.52;;;;;;;;;;143738;572;46018;-62
2022/01/26 15:57:58;;;;;;;13.65;9.55;;;;;;;;;;143737;596;46012;-62
2022/01/26 16:06:10;;;;;;;20.00;10.00;;;;;;;;;;143737;572;46014;-62
2022/01/26 18:16:30;;;;;;;15.70;8.65;;;;;;;;;;143737;583;46018;-62
2022/01/26 18:33:07;;;;;;;12.35;8.70;;;;;;;;;;143735;564;46012;-61
2022/01/26 18:49:10;;;;;;;17.73;11.35;;;;;;;;;;143732;582;46023;-61
2022/01/26 18:49:37;;;;;;;12.98;8.25;;;;;;;;;;143735;674;47020;-62
2022/01/26 18:52:05;;;;;;;12.48;8.82;;;;;;;;;;143731;596;47021;-61
2022/01/26 18:54:37;;;;;;;19.12;9.77;;;;;;;;;;143734;580;46012;-61
2022/01/26 18:57:07;;;;;;;9.60;6.87;;;;;;;;;;143733;610;45020;-62
2022/01/26 18:59:35;;;;;;;12.35;7.30;;;;;;;;;;143736;588;46010;-62
2022/01/26 19:02:03;;;;;;;9.88;6.65;;;;;;;;;;143732;643;47023;-62
2022/01/26 19:04:47;;;;;;;10.55;6.75;;;;;;;;;;143734;758;46012;-61
2022/01/26 19:07:15;;;;;;;11.52;7.20;;;;;;;;;;143733;618;46913;-61
2022/01/26 19:09:49;;;;;;;11.23;7.25;;;;;;;;;;143736;605;46021;-61
2022/01/26 19:12:17;;;;;;;10.70;6.95;;;;;;;;;;143731;589;47020;-61
2022/01/26 19:14:55;;;;;;;10.80;6.68;;;;;;;;;;143733;610;46013;-61
2022/01/26 19:17:28;;;;;;;12.15;7.05;;;;;;;;;;143734;573;46913;-62
2022/01/26 19:23:29;;;;;;;15.07;6.70;;;;;;;;;;143734;580;46014;-62
2022/01/26 19:25:51;;;;;;;9.95;6.15;;;;;;;;;;143735;603;46010;-62
2022/01/26 19:28:29;;;;;;;11.15;6.45;;;;;;;;;;143732;615;45020;-62
2022/01/26 19:50:53;;;;;;;9.75;6.85;;;;;;;;;;143734;636;46021;-61
2022/01/26 19:53:20;;;;;;;13.02;7.95;;;;;;;;;;143737;611;46010;-61
2022/01/26 19:55:47;;;;;;;14.93;8.60;;;;;;;;;;143732;564;47022;-62
2022/01/26 19:58:14;;;;;;;17.55;9.45;;;;;;;;;;143733;587;46013;-62
2022/01/26 20:00:44;;;;;;;13.15;8.40;;;;;;;;;;143731;597;45911;-62
2022/01/26 20:03:11;;;;;;;14.40;7.65;;;;;;;;;;143736;570;46010;-61
2022/01/26 20:05:39;;;;;;;14.65;7.95;;;;;;;;;;143733;578;47020;-61
2022/01/26 20:08:21;;;;;;;17.95;8.40;;;;;;;;;;143733;623;46012;-61
2022/01/26 20:10:55;;;;;;;12.30;8.50;;;;;;;;;;143733;587;45911;-62
2022/01/26 20:13:26;;;;;;;13.80;7.55;;;;;;;;;;143737;610;46020;-61
2022/01/26 20:15:54;;;;;;;13.57;8.05;;;;;;;;;;143731;673;47023;-61
2022/01/26 20:18:22;;;;;;;13.25;8.32;;;;;;;;;;143734;598;46012;-62
2022/01/26 20:20:50;;;;;;;12.18;7.57;;;;;;;;;;143732;576;45021;-61
2022/01/26 20:23:18;;;;;;;10.75;7.15;;;;;;;;;;143737;674;46010;-61
2022/01/26 20:25:49;;;;;;;12.93;7.30;;;;;;;;;;143733;570;47020;-62
2022/01/26 20:28:17;;;;;;;11.25;7.57;;;;;;;;;;143732;593;46012;-61
2022/01/26 20:30:46;;;;;;;12.13;7.47;;;;;;;;;;143733;590;45021;-62
2022/01/26 20:33:14;;;;;;;10.88;6.50;;;;;;;;;;143736;573;46010;-62
2022/01/26 20:35:41;;;;;;;9.30;6.35;;;;;;;;;;143732;564;47022;-62
2022/01/26 20:38:08;;;;;;;9.57;6.40;;;;;;;;;;143732;585;46012;-62
2022/01/26 20:40:35;;;;;;;10.30;6.37;;;;;;;;;;143736;583;45020;-61
2022/01/26 20:43:03;;;;;;;11.57;6.45;;;;;;;;;;143737;573;46011;-61
2022/01/26 20:45:30;;;;;;;9.80;6.45;;;;;;;;;;143732;570;47023;-62
2022/01/26 20:48:00;;;;;;;10.63;6.40;;;;;;;;;;143734;569;46012;-61
2022/01/26 20:50:28;;;;;;;12.57;6.18;;;;;;;;;;143734;566;45021;-62
2022/01/26 20:52:55;;;;;;;12.95;6.65;;;;;;;;;;143737;594;46010;-62
2022/01/26 20:55:22;;;;;;;13.00;6.97;;;;;;;;;;143733;602;47020;-62
2022/01/26 20:57:49;;;;;;;12.27;6.15;;;;;;;;;;143730;606;47024;-62
2022/01/26 21:00:19;;;;;;;12.10;6.40;;;;;;;;;;143734;613;45021;-62
2022/01/26 21:02:49;;;;;;;9.20;5.35;;;;;;;;;;143737;577;46020;-61
2022/01/26 21:05:19;;;;;;;7.93;5.47;;;;;;;;;;143735;565;46012;-62
2022/01/26 21:07:46;;;;;;;11.63;6.20;;;;;;;;;;143734;663;46012;-62
2022/01/26 21:10:13;;;;;;;9.48;6.10;;;;;;;;;;143734;576;45020;-62
2022/01/26 21:12:41;;;;;;;10.38;5.93;;;;;;;;;;143738;644;46011;-61
2022/01/26 21:15:09;;;;;;;9.20;6.00;;;;;;;;;;143732;641;47023;-62
2022/01/26 21:17:37;;;;;;;11.55;6.35;;;;;;;;;;143732;604;47047;-61
2022/01/26 21:20:07;;;;;;;11.88;5.65;;;;;;;;;;143734;604;45020;-61
2022/01/26 21:22:34;;;;;;;9.57;6.00;;;;;;;;;;143737;615;46010;-62
2022/01/26 21:25:01;;;;;;;9.07;5.85;;;;;;;;;;143732;569;47020;-62
2022/01/26 21:27:28;;;;;;;10.98;6.07;;;;;;;;;;143734;605;46012;-61
2022/01/26 21:29:55;;;;;;;11.12;6.18;;;;;;;;;;143735;571;45021;-62
2022/01/26 21:32:24;;;;;;;8.25;5.43;;;;;;;;;;143736;767;46010;-61
2022/01/26 21:34:52;;;;;;;10.40;5.72;;;;;;;;;;143731;635;47022;-61